createdAt,value
2019-05-03T00:02:41.712Z,4.96
2019-05-03T00:05:39.245Z,4.94
2019-05-03T00:08:08.743Z,4.86
2019-05-03T00:10:38.763Z,4.88
2019-05-03T00:13:08.471Z,4.87
2019-05-03T00:16:12.267Z,4.90
2019-05-03T00:18:42.220Z,4.89
2019-05-03T00:21:11.736Z,4.91
2019-05-03T00:23:41.793Z,4.87
2019-05-03T00:26:11.997Z,4.84
2019-05-03T00:28:42.665Z,4.81
2019-05-03T00:31:12.510Z,4.88
2019-05-03T00:33:43.379Z,4.91
2019-05-03T00:36:22.431Z,4.91
2019-05-03T00:38:53.677Z,4.95
2019-05-03T00:41:22.686Z,4.98
2019-05-03T00:43:51.925Z,5.01
2019-05-03T00:46:22.033Z,5.00
2019-05-03T00:48:52.442Z,5.01
2019-05-03T00:51:22.562Z,5.05
2019-05-03T00:53:53.098Z,5.10
2019-05-03T00:56:22.245Z,5.15
2019-05-03T00:58:57.497Z,5.13
2019-05-03T01:01:26.504Z,5.13
2019-05-03T01:03:55.576Z,5.08
2019-05-03T01:06:24.693Z,5.08
2019-05-03T01:08:54.606Z,5.08
2019-05-03T01:11:24.355Z,5.07
2019-05-03T01:13:54.377Z,5.08
2019-05-03T01:16:24.855Z,5.09
2019-05-03T01:18:54.427Z,5.09
2019-05-03T01:21:24.688Z,5.07
2019-05-03T01:23:54.397Z,5.10
2019-05-03T01:26:24.460Z,5.09
2019-05-03T01:28:54.474Z,5.12
2019-05-03T01:31:24.504Z,5.11
2019-05-03T01:33:54.752Z,5.11
2019-05-03T01:36:24.773Z,5.11
2019-05-03T01:38:54.552Z,5.10
2019-05-03T01:41:24.553Z,5.09
2019-05-03T01:43:54.568Z,5.11
2019-05-03T01:46:24.634Z,5.12
2019-05-03T01:49:01.655Z,5.10
2019-05-03T01:51:36.390Z,5.05
2019-05-03T01:54:05.908Z,5.01
2019-05-03T01:56:34.926Z,4.95
2019-05-03T01:59:04.072Z,4.87
2019-05-03T02:01:49.392Z,4.78
2019-05-03T02:04:43.239Z,4.78
2019-05-03T02:07:12.285Z,4.73
2019-05-03T02:09:41.697Z,4.74
2019-05-03T02:12:12.714Z,4.67
2019-05-03T02:14:42.311Z,4.63
2019-05-03T02:17:12.452Z,4.57
2019-05-03T02:19:42.276Z,4.54
2019-05-03T02:22:12.112Z,4.54
2019-05-03T02:24:42.252Z,4.55
2019-05-03T02:27:12.746Z,4.56
2019-05-03T02:29:41.998Z,4.59
2019-05-03T02:32:13.225Z,4.60
2019-05-03T02:34:43.859Z,4.60
2019-05-03T02:37:14.015Z,4.62
2019-05-03T02:39:43.274Z,4.61
2019-05-03T02:42:12.447Z,4.63
2019-05-03T02:44:41.556Z,4.60
2019-05-03T02:47:26.511Z,4.59
2019-05-03T02:49:59.740Z,4.60
2019-05-03T02:52:36.660Z,4.61
2019-05-03T02:55:11.574Z,4.65
2019-05-03T02:57:40.686Z,4.66
2019-05-03T03:00:11.977Z,4.64
2019-05-03T03:02:41.417Z,4.67
2019-05-03T03:05:12.765Z,4.67
2019-05-03T03:07:46.064Z,4.60
2019-05-03T03:10:17.675Z,4.57
2019-05-03T03:12:50.734Z,4.60
2019-05-03T03:15:19.898Z,4.65
2019-05-03T03:17:52.086Z,4.65
2019-05-03T03:20:21.294Z,4.65
2019-05-03T03:22:55.398Z,4.70
2019-05-03T03:25:28.551Z,4.72
2019-05-03T03:28:01.456Z,4.73
2019-05-03T03:31:20.441Z,4.73
2019-05-03T03:33:49.366Z,4.74
2019-05-03T03:36:50.275Z,4.77
2019-05-03T03:38:50.215Z,4.83
2019-05-03T03:41:19.884Z,4.83
2019-05-03T03:43:51.239Z,4.84
2019-05-03T03:46:25.117Z,4.87
2019-05-03T03:48:56.972Z,4.90
2019-05-03T03:51:27.574Z,4.91
2019-05-03T03:53:59.682Z,4.94
2019-05-03T03:56:32.488Z,4.97
2019-05-03T03:59:01.580Z,5.01
2019-05-03T04:01:30.735Z,5.02
2019-05-03T04:04:00.161Z,5.02
2019-05-03T04:06:41.960Z,4.99
2019-05-03T04:09:11.134Z,4.95
2019-05-03T04:11:41.284Z,4.97
2019-05-03T04:14:16.167Z,5.03
2019-05-03T04:17:20.137Z,5.07
2019-05-03T04:19:51.782Z,5.18
2019-05-03T04:22:21.201Z,5.22
2019-05-03T04:24:50.377Z,5.34
2019-05-03T04:27:26.095Z,5.51
2019-05-03T04:29:51.889Z,5.77
2019-05-03T04:32:24.771Z,5.96
2019-05-03T04:34:52.820Z,5.98
2019-05-03T04:37:21.966Z,6.15
2019-05-03T04:39:51.058Z,6.05
2019-05-03T04:42:20.138Z,6.04
2019-05-03T04:44:49.186Z,6.40
2019-05-03T04:47:18.310Z,6.66
2019-05-03T04:49:47.378Z,6.95
2019-05-03T04:52:16.754Z,7.53
2019-05-03T04:54:56.942Z,7.44
2019-05-03T04:57:36.741Z,7.92
2019-05-03T04:59:56.951Z,7.75
2019-05-03T05:02:26.611Z,7.63
2019-05-03T05:04:56.381Z,7.51
2019-05-03T05:07:26.532Z,8.19
2019-05-03T05:09:56.490Z,8.40
2019-05-03T05:12:26.374Z,8.45
2019-05-03T05:14:56.634Z,9.00
2019-05-03T05:17:36.310Z,9.28
2019-05-03T05:20:14.479Z,9.38
2019-05-03T05:22:45.422Z,9.33
2019-05-03T05:25:18.175Z,9.63
2019-05-03T05:28:04.616Z,10.26
2019-05-03T05:30:35.314Z,11.40
2019-05-03T05:33:06.241Z,11.14
2019-05-03T05:35:35.348Z,10.47
2019-05-03T05:38:04.764Z,10.02
2019-05-03T05:40:34.948Z,10.12
2019-05-03T05:43:04.942Z,10.40
2019-05-03T05:45:34.807Z,10.51
2019-05-03T05:48:07.694Z,11.13
2019-05-03T05:50:39.603Z,11.37
2019-05-03T05:53:08.760Z,11.05
2019-05-03T05:55:59.835Z,11.36
2019-05-03T05:58:34.794Z,11.77
2019-05-03T06:01:11.730Z,11.79
2019-05-03T06:03:40.858Z,11.55
2019-05-03T06:06:15.199Z,11.55
2019-05-03T06:08:59.761Z,12.00
2019-05-03T06:11:38.361Z,11.75
2019-05-03T06:14:17.383Z,11.57
2019-05-03T06:17:00.405Z,11.98
2019-05-03T06:19:37.171Z,12.23
2019-05-03T06:22:29.049Z,12.23
2019-05-03T06:25:06.105Z,11.64
2019-05-03T06:27:38.285Z,11.65
2019-05-03T06:30:19.787Z,11.59
2019-05-03T06:32:48.835Z,11.59
2019-05-03T06:35:17.845Z,12.11
2019-05-03T06:37:46.859Z,11.84
2019-05-03T06:40:16.344Z,11.37
2019-05-03T06:42:52.395Z,11.32
2019-05-03T06:45:16.130Z,10.83
2019-05-03T06:47:49.766Z,10.94
2019-05-03T06:50:19.475Z,11.39
2019-05-03T06:52:47.001Z,11.69
2019-05-03T06:55:16.147Z,12.67
2019-05-03T06:57:49.489Z,13.59
2019-05-03T07:00:45.145Z,14.38
2019-05-03T07:03:28.853Z,13.94
2019-05-03T07:06:33.355Z,13.00
2019-05-03T07:09:00.105Z,12.23
2019-05-03T07:11:29.158Z,12.07
2019-05-03T07:13:58.513Z,10.83
2019-05-03T07:16:27.555Z,10.62
2019-05-03T07:18:58.620Z,10.16
2019-05-03T07:21:27.744Z,10.25
2019-05-03T07:23:56.944Z,9.85
2019-05-03T07:26:26.914Z,9.32
2019-05-03T07:28:57.206Z,8.55
2019-05-03T07:31:27.006Z,8.28
2019-05-03T07:33:56.993Z,7.98
2019-05-03T07:36:28.366Z,7.73
2019-05-03T07:38:57.571Z,7.76
2019-05-03T07:41:27.379Z,7.81
2019-05-03T07:43:56.971Z,7.83
2019-05-03T07:46:26.002Z,8.17
2019-05-03T07:48:55.009Z,8.69
2019-05-03T07:51:24.841Z,8.84
2019-05-03T07:53:55.533Z,9.15
2019-05-03T07:56:29.063Z,9.43
2019-05-03T07:59:03.392Z,9.68
2019-05-03T08:01:35.603Z,9.46
2019-05-03T08:04:05.604Z,9.29
2019-05-03T08:06:34.744Z,8.73
2019-05-03T08:09:06.655Z,8.48
2019-05-03T08:11:35.707Z,9.27
2019-05-03T08:14:06.185Z,10.08
2019-05-03T08:16:35.451Z,10.23
2019-05-03T08:19:05.076Z,10.93
2019-05-03T08:21:37.935Z,11.61
2019-05-03T08:24:05.536Z,12.02
2019-05-03T08:26:35.141Z,12.15
2019-05-03T08:29:15.595Z,12.40
2019-05-03T08:32:09.300Z,10.92
2019-05-03T08:34:55.599Z,10.83
2019-05-03T08:37:28.095Z,11.35
2019-05-03T08:39:57.476Z,10.51
2019-05-03T08:42:27.457Z,9.49
2019-05-03T08:44:57.434Z,9.20
2019-05-03T08:47:27.496Z,9.68
2019-05-03T08:49:57.471Z,9.81
2019-05-03T08:52:27.543Z,10.12
2019-05-03T08:54:57.874Z,10.60
2019-05-03T08:57:27.540Z,11.32
2019-05-03T08:59:57.552Z,11.38
2019-05-03T09:02:27.633Z,10.25
2019-05-03T09:04:57.617Z,10.68
2019-05-03T09:07:27.624Z,10.90
2019-05-03T09:10:16.865Z,10.90
2019-05-03T09:13:06.434Z,10.55
2019-05-03T09:15:35.816Z,9.63
2019-05-03T09:18:05.399Z,9.31
2019-05-03T09:20:35.608Z,9.17
2019-05-03T09:23:05.451Z,8.91
2019-05-03T09:25:35.584Z,9.49
2019-05-03T09:28:04.969Z,9.91
2019-05-03T09:30:35.725Z,10.28
2019-05-03T09:33:08.662Z,10.31
2019-05-03T09:35:36.258Z,10.08
2019-05-03T09:38:05.868Z,10.06
2019-05-03T09:40:35.386Z,11.14
2019-05-03T09:43:04.751Z,11.34
2019-05-03T09:45:35.255Z,10.03
2019-05-03T09:48:05.697Z,8.80
2019-05-03T09:50:35.837Z,8.07
2019-05-03T09:53:05.606Z,7.84
2019-05-03T09:55:38.059Z,7.83
2019-05-03T09:58:07.109Z,7.78
2019-05-03T10:00:36.115Z,8.61
2019-05-03T10:03:05.692Z,9.29
2019-05-03T10:05:35.246Z,9.42
2019-05-03T10:08:05.252Z,8.72
2019-05-03T10:10:51.956Z,9.15
2019-05-03T10:13:23.378Z,9.47
2019-05-03T10:15:51.750Z,9.36
2019-05-03T10:18:20.751Z,9.48
2019-05-03T10:20:49.825Z,9.98
2019-05-03T10:23:49.976Z,9.49
2019-05-03T10:26:19.109Z,9.52
2019-05-03T10:28:48.165Z,9.24
2019-05-03T10:31:17.348Z,9.58
2019-05-03T10:33:54.290Z,9.30
2019-05-03T10:36:24.955Z,9.29
2019-05-03T10:41:29.020Z,10.49
2019-05-03T10:43:58.542Z,11.31
2019-05-03T10:46:28.536Z,11.04
2019-05-03T10:48:58.531Z,10.53
2019-05-03T10:51:30.929Z,10.22
2019-05-03T10:54:00.557Z,10.37
2019-05-03T10:56:53.177Z,10.02
2019-05-03T10:59:24.828Z,10.26
2019-05-03T11:02:11.551Z,10.93
2019-05-03T11:04:43.493Z,11.11
2019-05-03T11:07:11.430Z,10.17
2019-05-03T11:09:49.792Z,10.05
2019-05-03T11:12:11.226Z,10.01
2019-05-03T11:14:40.236Z,10.44
2019-05-03T11:17:09.239Z,10.24
2019-05-03T11:19:38.294Z,10.28
2019-05-03T11:22:07.291Z,10.00
2019-05-03T11:24:36.346Z,9.88
2019-05-03T11:27:10.249Z,10.19
2019-05-03T11:29:39.660Z,10.67
2019-05-03T11:32:26.515Z,10.56
2019-05-03T11:35:06.773Z,10.66
2019-05-03T11:37:45.265Z,10.93
2019-05-03T11:40:15.731Z,11.02
2019-05-03T11:42:45.031Z,10.36
2019-05-03T11:45:15.200Z,10.27
2019-05-03T11:47:45.659Z,10.66
2019-05-03T11:50:15.363Z,11.19
2019-05-03T11:52:47.135Z,11.56
2019-05-03T11:55:16.079Z,11.94
2019-05-03T11:57:45.208Z,11.62
2019-05-03T12:00:17.027Z,11.76
2019-05-03T12:02:55.593Z,11.97
2019-05-03T12:05:26.624Z,11.97
2019-05-03T12:07:55.677Z,12.72
2019-05-03T12:10:36.716Z,12.50
2019-05-03T12:13:00.636Z,12.20
2019-05-03T12:15:29.685Z,12.65
2019-05-03T12:18:02.257Z,12.60
2019-05-03T12:20:33.134Z,11.17
2019-05-03T12:23:05.559Z,10.97
2019-05-03T12:25:35.789Z,10.54
2019-05-03T12:28:05.821Z,10.74
2019-05-03T12:30:35.526Z,11.08
2019-05-03T12:33:05.958Z,10.76
2019-05-03T12:35:35.876Z,10.56
2019-05-03T12:38:05.645Z,10.29
2019-05-03T12:40:35.174Z,10.56
2019-05-03T12:43:05.999Z,11.06
2019-05-03T12:45:35.499Z,11.23
2019-05-03T12:48:05.233Z,11.26
2019-05-03T12:50:34.831Z,11.50
2019-05-03T12:53:04.925Z,11.04
2019-05-03T12:55:35.605Z,10.69
2019-05-03T12:58:06.510Z,11.28
2019-05-03T13:00:55.634Z,11.04
2019-05-03T13:03:30.687Z,11.04
2019-05-03T13:06:00.001Z,11.26
2019-05-03T13:08:35.355Z,10.81
2019-05-03T13:11:05.418Z,11.57
2019-05-03T13:13:35.886Z,11.75
2019-05-03T13:16:05.661Z,11.39
2019-05-03T13:18:35.405Z,11.87
2019-05-03T13:21:06.056Z,12.01
2019-05-03T13:23:35.976Z,12.00
2019-05-03T13:26:06.101Z,11.67
2019-05-03T13:28:35.384Z,10.31
2019-05-03T13:31:05.811Z,9.77
2019-05-03T13:33:35.237Z,8.92
2019-05-03T13:36:04.915Z,7.80
2019-05-03T13:38:34.938Z,7.37
2019-05-03T13:41:06.357Z,7.12
2019-05-03T13:43:35.065Z,7.32
2019-05-03T13:46:05.183Z,7.45
2019-05-03T13:48:42.789Z,8.18
2019-05-03T13:51:05.532Z,8.84
2019-05-03T13:53:34.974Z,9.13
2019-05-03T13:56:04.802Z,9.36
2019-05-03T13:58:35.850Z,9.65
2019-05-03T14:01:05.529Z,9.78
2019-05-03T14:03:35.277Z,10.02
2019-05-03T14:06:08.492Z,10.52
2019-05-03T14:08:35.580Z,10.30
2019-05-03T14:11:05.106Z,10.35
2019-05-03T14:13:35.284Z,10.18
2019-05-03T14:16:05.755Z,10.40
2019-05-03T14:18:35.472Z,10.67
2019-05-03T14:21:25.323Z,10.66
2019-05-03T14:24:09.505Z,10.48
2019-05-03T14:26:39.287Z,10.44
2019-05-03T14:29:08.811Z,10.77
2019-05-03T14:31:37.993Z,10.59
2019-05-03T14:34:07.222Z,10.58
2019-05-03T14:36:36.282Z,10.83
2019-05-03T14:39:09.789Z,10.62
2019-05-03T14:41:38.089Z,10.48
2019-05-03T14:44:07.245Z,10.41
2019-05-03T14:46:36.843Z,10.49
2019-05-03T14:49:06.174Z,10.49
2019-05-03T14:51:35.258Z,10.42
2019-05-03T14:54:05.328Z,10.37
2019-05-03T14:56:41.286Z,10.21
2019-05-03T14:59:29.319Z,9.45
2019-05-03T15:02:17.321Z,9.36
2019-05-03T15:04:46.398Z,9.69
2019-05-03T15:07:15.437Z,9.89
2019-05-03T15:09:45.793Z,9.98
2019-05-03T15:12:15.027Z,10.18
2019-05-03T15:14:45.144Z,10.22
2019-05-03T15:17:14.297Z,10.41
2019-05-03T15:19:45.350Z,10.46
2019-05-03T15:22:14.725Z,10.46
2019-05-03T15:24:45.075Z,10.54
2019-05-03T15:27:14.478Z,10.52
2019-05-03T15:29:44.832Z,10.58
2019-05-03T15:32:15.474Z,10.60
2019-05-03T15:34:44.730Z,10.40
2019-05-03T15:37:14.839Z,10.27
2019-05-03T15:39:45.139Z,10.21
2019-05-03T15:42:14.786Z,10.33
2019-05-03T15:45:11.892Z,10.14
2019-05-03T15:47:46.288Z,9.80
2019-05-03T15:50:15.580Z,9.61
2019-05-03T15:52:44.883Z,9.39
2019-05-03T15:55:15.241Z,9.15
2019-05-03T15:57:44.822Z,9.06
2019-05-03T16:00:15.298Z,8.58
2019-05-03T16:02:44.318Z,7.73
2019-05-03T16:05:15.573Z,7.45
2019-05-03T16:07:44.701Z,7.43
2019-05-03T16:10:15.397Z,7.64
2019-05-03T16:12:45.029Z,7.43
2019-05-03T16:15:14.606Z,7.44
2019-05-03T16:17:44.933Z,7.57
2019-05-03T16:20:14.458Z,7.73
2019-05-03T16:22:44.982Z,7.79
2019-05-03T16:25:15.478Z,8.11
2019-05-03T16:28:04.666Z,8.12
2019-05-03T16:30:45.589Z,8.12
2019-05-03T16:33:26.176Z,7.90
2019-05-03T16:35:45.506Z,7.96
2019-05-03T16:38:15.719Z,7.91
2019-05-03T16:40:45.227Z,7.82
2019-05-03T16:43:16.245Z,7.77
2019-05-03T16:45:45.335Z,7.48
2019-05-03T16:48:15.390Z,6.69
2019-05-03T16:50:45.269Z,6.01
2019-05-03T16:53:14.831Z,5.66
2019-05-03T16:55:44.454Z,5.16
2019-05-03T16:58:14.946Z,5.12
2019-05-03T17:00:45.251Z,5.31
2019-05-03T17:03:14.684Z,5.73
2019-05-03T17:06:02.860Z,6.14
2019-05-03T17:08:50.188Z,6.16
2019-05-03T17:11:20.338Z,6.53
2019-05-03T17:13:49.337Z,6.56
2019-05-03T17:16:18.388Z,6.71
2019-05-03T17:18:47.383Z,6.75
2019-05-03T17:21:16.469Z,6.66
2019-05-03T17:23:45.570Z,6.57
2019-05-03T17:26:14.974Z,6.64
2019-05-03T17:28:45.410Z,6.48
2019-05-03T17:31:14.684Z,6.51
2019-05-03T17:33:51.467Z,6.49
2019-05-03T17:36:15.435Z,6.42
2019-05-03T17:38:45.322Z,6.68
2019-05-03T17:41:43.115Z,6.80
2019-05-03T17:44:16.332Z,6.78
2019-05-03T17:46:45.641Z,6.83
2019-05-03T17:49:14.879Z,6.71
2019-05-03T17:51:55.800Z,6.67
2019-05-03T17:54:59.082Z,6.45
2019-05-03T17:57:42.152Z,6.41
2019-05-03T18:00:27.644Z,6.39
2019-05-03T18:02:56.825Z,6.45
2019-05-03T18:05:41.194Z,6.44
2019-05-03T18:08:35.570Z,6.40
2019-05-03T18:11:08.594Z,6.42
2019-05-03T18:13:37.656Z,6.38
2019-05-03T18:16:07.128Z,6.47
2019-05-03T18:18:36.170Z,6.46
2019-05-03T18:21:05.359Z,6.44
2019-05-03T18:23:35.178Z,6.45
2019-05-03T18:26:05.307Z,6.46
2019-05-03T18:28:35.586Z,6.45
2019-05-03T18:31:05.418Z,6.50
2019-05-03T18:33:36.721Z,6.60
2019-05-03T18:36:05.736Z,6.54
2019-05-03T18:38:44.543Z,6.57
2019-05-03T18:41:14.099Z,6.65
2019-05-03T18:44:05.276Z,6.67
2019-05-03T18:46:37.981Z,6.59
2019-05-03T18:49:06.985Z,6.48
2019-05-03T18:51:36.040Z,6.35
2019-05-03T18:54:07.247Z,6.22
2019-05-03T18:56:35.880Z,6.24
2019-05-03T18:59:05.224Z,6.14
2019-05-03T19:01:34.869Z,5.99
2019-05-03T19:04:14.584Z,5.95
2019-05-03T19:06:45.150Z,5.89
2019-05-03T19:09:35.698Z,5.80
2019-05-03T19:12:15.488Z,5.68
2019-05-03T19:14:45.020Z,5.60
2019-05-03T19:17:27.113Z,5.52
2019-05-03T19:19:56.171Z,5.52
2019-05-03T19:22:25.221Z,5.46
2019-05-03T19:24:54.249Z,5.43
2019-05-03T19:27:24.938Z,5.39
2019-05-03T19:29:55.492Z,5.35
2019-05-03T19:32:25.454Z,5.30
2019-05-03T19:34:55.357Z,5.25
2019-05-03T19:37:25.181Z,5.16
2019-05-03T19:39:55.229Z,5.20
2019-05-03T19:42:27.082Z,5.13
2019-05-03T19:44:55.449Z,5.12
2019-05-03T19:47:25.215Z,5.07
2019-05-03T19:49:54.814Z,5.02
2019-05-03T19:52:26.940Z,4.96
2019-05-03T19:54:55.995Z,4.91
2019-05-03T19:57:30.097Z,4.91
2019-05-03T19:59:59.149Z,4.91
2019-05-03T20:02:54.559Z,4.91
2019-05-03T20:05:39.686Z,4.90
2019-05-03T20:08:15.338Z,4.91
2019-05-03T20:10:46.390Z,4.93
2019-05-03T20:13:16.305Z,4.97
2019-05-03T20:15:46.654Z,4.98
2019-05-03T20:18:18.067Z,4.88
2019-05-03T20:20:51.523Z,4.78
2019-05-03T20:23:20.449Z,4.74
2019-05-03T20:25:49.512Z,4.74
2019-05-03T20:28:19.258Z,4.67
2019-05-03T20:30:48.260Z,4.73
2019-05-03T20:33:17.310Z,4.70
2019-05-03T20:35:46.525Z,4.64
2019-05-03T20:38:16.738Z,4.60
2019-05-03T20:40:46.614Z,4.58
2019-05-03T20:43:25.838Z,4.60
2019-05-03T20:46:17.202Z,4.52
2019-05-03T20:48:48.847Z,4.45
2019-05-03T20:51:17.845Z,4.45
2019-05-03T20:53:46.970Z,4.47
2019-05-03T20:56:16.656Z,4.45
2019-05-03T20:58:46.661Z,4.45
2019-05-03T21:01:16.713Z,4.47
2019-05-03T21:03:46.667Z,4.41
2019-05-03T21:06:16.694Z,4.39
2019-05-03T21:08:52.979Z,4.32
2019-05-03T21:11:17.616Z,4.27
2019-05-03T21:13:46.770Z,4.21
2019-05-03T21:16:41.897Z,4.13
2019-05-03T21:19:21.587Z,4.08
2019-05-03T21:21:55.034Z,3.99
2019-05-03T21:24:30.751Z,3.92
2019-05-03T21:26:59.831Z,3.88
2019-05-03T21:29:28.841Z,3.88
2019-05-03T21:31:57.807Z,3.83
2019-05-03T21:34:26.818Z,3.81
2019-05-03T21:36:55.853Z,3.80
2019-05-03T21:39:24.903Z,3.78
2019-05-03T21:41:55.514Z,3.79
2019-05-03T21:44:34.744Z,3.79
2019-05-03T21:47:19.581Z,3.79
2019-05-03T21:49:48.859Z,3.72
2019-05-03T21:52:18.135Z,3.69
2019-05-03T21:54:47.580Z,3.70
2019-05-03T21:57:17.394Z,3.69
2019-05-03T21:59:47.130Z,3.69
2019-05-03T22:02:17.163Z,3.72
2019-05-03T22:04:47.095Z,3.71
2019-05-03T22:07:17.289Z,3.74
2019-05-03T22:09:47.176Z,3.75
2019-05-03T22:12:17.159Z,3.80
2019-05-03T22:15:09.585Z,3.87
2019-05-03T22:18:04.760Z,3.90
2019-05-03T22:20:43.059Z,3.98
2019-05-03T22:23:34.160Z,4.06
2019-05-03T22:26:05.138Z,4.09
2019-05-03T22:28:35.139Z,4.16
2019-05-03T22:31:06.778Z,4.23
2019-05-03T22:33:35.326Z,4.36
2019-05-03T22:36:08.591Z,4.46
2019-05-03T22:38:38.298Z,4.55
2019-05-03T22:41:05.881Z,4.65
2019-05-03T22:43:34.944Z,4.73
2019-05-03T22:46:05.331Z,4.79
2019-05-03T22:48:34.483Z,4.76
2019-05-03T22:51:04.837Z,4.84
2019-05-03T22:53:34.354Z,4.82
2019-05-03T22:56:04.948Z,4.76
2019-05-03T22:58:35.489Z,4.70
2019-05-03T23:01:04.573Z,4.60
2019-05-03T23:03:42.244Z,4.53
2019-05-03T23:06:20.338Z,4.52
2019-05-03T23:08:42.828Z,4.46
2019-05-03T23:11:11.840Z,4.47
2019-05-03T23:13:40.952Z,4.53
2019-05-03T23:16:09.971Z,4.48
2019-05-03T23:18:39.067Z,4.42
2019-05-03T23:21:15.206Z,4.39
2019-05-03T23:23:54.892Z,4.29
2019-05-03T23:26:25.455Z,4.21
2019-05-03T23:28:55.109Z,4.15
2019-05-03T23:31:25.201Z,4.10
2019-05-03T23:33:54.603Z,4.02
2019-05-03T23:36:33.222Z,3.97
2019-05-03T23:38:54.693Z,3.87
2019-05-03T23:41:24.563Z,3.74
2019-05-03T23:43:54.046Z,3.69
2019-05-03T23:46:28.963Z,3.61
2019-05-03T23:48:58.278Z,3.52
2019-05-03T23:51:51.175Z,3.49
2019-05-03T23:54:20.231Z,3.45
2019-05-03T23:56:49.228Z,3.36
2019-05-03T23:59:18.272Z,3.35
